sensor_id;sensor_type;location;lat;lon;timestamp;P1;durP1;ratioP1;P2;durP2;ratioP2
43744;SDS011;29359;53.048;8.732;2023-02-23T00:01:28;33.58;;;20.58;;
43744;SDS011;29359;53.048;8.732;2023-02-23T00:03:30;34.28;;;20.80;;
43744;SDS011;29359;53.048;8.732;2023-02-23T00:05:34;35.65;;;20.58;;
43744;SDS011;29359;53.048;8.732;2023-02-23T00:07:36;37.47;;;20.67;;
43744;SDS011;29359;53.048;8.732;2023-02-23T00:09:38;32.35;;;19.40;;
43744;SDS011;29359;53.048;8.732;2023-02-23T00:11:40;33.50;;;20.27;;
43744;SDS011;29359;53.048;8.732;2023-02-23T00:13:42;35.90;;;19.40;;
43744;SDS011;29359;53.048;8.732;2023-02-23T00:15:46;29.98;;;17.77;;
43744;SDS011;29359;53.048;8.732;2023-02-23T00:17:47;30.15;;;17.80;;
43744;SDS011;29359;53.048;8.732;2023-02-23T00:19:49;33.70;;;18.83;;
43744;SDS011;29359;53.048;8.732;2023-02-23T00:21:51;35.30;;;19.20;;
43744;SDS011;29359;53.048;8.732;2023-02-23T00:23:54;27.52;;;17.33;;
43744;SDS011;29359;53.048;8.732;2023-02-23T00:25:57;28.48;;;17.73;;
43744;SDS011;29359;53.048;8.732;2023-02-23T00:27:59;31.10;;;18.08;;
43744;SDS011;29359;53.048;8.732;2023-02-23T00:30:01;28.30;;;17.38;;
43744;SDS011;29359;53.048;8.732;2023-02-23T00:32:03;28.88;;;18.50;;
43744;SDS011;29359;53.048;8.732;2023-02-23T00:34:05;31.35;;;19.13;;
43744;SDS011;29359;53.048;8.732;2023-02-23T00:36:11;34.20;;;19.67;;
43744;SDS011;29359;53.048;8.732;2023-02-23T00:38:14;36.65;;;20.70;;
43744;SDS011;29359;53.048;8.732;2023-02-23T00:40:16;37.90;;;20.10;;
43744;SDS011;29359;53.048;8.732;2023-02-23T00:42:20;34.42;;;19.30;;
43744;SDS011;29359;53.048;8.732;2023-02-23T00:44:22;33.63;;;20.38;;
43744;SDS011;29359;53.048;8.732;2023-02-23T00:46:26;33.72;;;19.55;;
43744;SDS011;29359;53.048;8.732;2023-02-23T00:48:31;37.33;;;19.33;;
43744;SDS011;29359;53.048;8.732;2023-02-23T00:50:33;33.17;;;18.88;;
43744;SDS011;29359;53.048;8.732;2023-02-23T00:52:34;31.35;;;18.92;;
43744;SDS011;29359;53.048;8.732;2023-02-23T00:54:36;36.80;;;20.00;;
43744;SDS011;29359;53.048;8.732;2023-02-23T00:56:38;34.78;;;19.58;;
43744;SDS011;29359;53.048;8.732;2023-02-23T00:58:40;29.77;;;18.00;;
43744;SDS011;29359;53.048;8.732;2023-02-23T01:00:42;28.35;;;18.00;;
43744;SDS011;29359;53.048;8.732;2023-02-23T01:02:44;30.05;;;18.90;;
43744;SDS011;29359;53.048;8.732;2023-02-23T01:04:49;38.65;;;20.95;;
43744;SDS011;29359;53.048;8.732;2023-02-23T01:06:50;38.72;;;22.60;;
43744;SDS011;29359;53.048;8.732;2023-02-23T01:08:52;35.88;;;20.80;;
43744;SDS011;29359;53.048;8.732;2023-02-23T01:10:57;38.42;;;22.73;;
43744;SDS011;29359;53.048;8.732;2023-02-23T01:12:58;43.17;;;24.50;;
43744;SDS011;29359;53.048;8.732;2023-02-23T01:15:00;40.47;;;23.42;;
43744;SDS011;29359;53.048;8.732;2023-02-23T01:17:03;43.45;;;24.92;;
43744;SDS011;29359;53.048;8.732;2023-02-23T01:19:05;41.83;;;24.60;;
43744;SDS011;29359;53.048;8.732;2023-02-23T01:21:18;43.92;;;24.08;;
43744;SDS011;29359;53.048;8.732;2023-02-23T01:23:21;47.25;;;24.92;;
43744;SDS011;29359;53.048;8.732;2023-02-23T01:25:22;39.15;;;23.63;;
43744;SDS011;29359;53.048;8.732;2023-02-23T01:27:24;40.90;;;23.55;;
43744;SDS011;29359;53.048;8.732;2023-02-23T01:29:26;43.42;;;23.85;;
43744;SDS011;29359;53.048;8.732;2023-02-23T01:31:28;40.65;;;24.88;;
43744;SDS011;29359;53.048;8.732;2023-02-23T01:33:30;42.38;;;24.27;;
43744;SDS011;29359;53.048;8.732;2023-02-23T01:35:32;43.90;;;25.02;;
43744;SDS011;29359;53.048;8.732;2023-02-23T01:37:34;45.15;;;25.00;;
43744;SDS011;29359;53.048;8.732;2023-02-23T01:39:36;46.65;;;25.10;;
43744;SDS011;29359;53.048;8.732;2023-02-23T01:41:38;46.80;;;25.13;;
43744;SDS011;29359;53.048;8.732;2023-02-23T01:46:13;45.30;;;25.33;;
43744;SDS011;29359;53.048;8.732;2023-02-23T01:48:19;44.13;;;25.15;;
43744;SDS011;29359;53.048;8.732;2023-02-23T01:50:23;44.97;;;25.70;;
43744;SDS011;29359;53.048;8.732;2023-02-23T01:52:27;46.17;;;25.92;;
43744;SDS011;29359;53.048;8.732;2023-02-23T01:54:29;48.63;;;25.58;;
43744;SDS011;29359;53.048;8.732;2023-02-23T01:56:35;46.90;;;24.48;;
43744;SDS011;29359;53.048;8.732;2023-02-23T01:58:44;48.38;;;25.77;;
43744;SDS011;29359;53.048;8.732;2023-02-23T02:00:56;46.65;;;26.33;;
43744;SDS011;29359;53.048;8.732;2023-02-23T02:02:59;60.05;;;27.15;;
43744;SDS011;29359;53.048;8.732;2023-02-23T02:05:03;49.67;;;25.75;;
43744;SDS011;29359;53.048;8.732;2023-02-23T02:07:09;47.90;;;24.38;;
43744;SDS011;29359;53.048;8.732;2023-02-23T02:09:15;45.95;;;25.23;;
43744;SDS011;29359;53.048;8.732;2023-02-23T02:11:17;46.58;;;25.40;;
43744;SDS011;29359;53.048;8.732;2023-02-23T02:13:36;51.72;;;25.90;;
43744;SDS011;29359;53.048;8.732;2023-02-23T02:15:40;45.78;;;24.73;;
43744;SDS011;29359;53.048;8.732;2023-02-23T02:18:19;45.35;;;24.90;;
43744;SDS011;29359;53.048;8.732;2023-02-23T02:20:28;52.58;;;25.35;;
43744;SDS011;29359;53.048;8.732;2023-02-23T02:25:16;49.15;;;25.27;;
43744;SDS011;29359;53.048;8.732;2023-02-23T02:42:40;46.63;;;25.13;;
43744;SDS011;29359;53.048;8.732;2023-02-23T02:44:47;52.30;;;26.38;;
43744;SDS011;29359;53.048;8.732;2023-02-23T02:47:10;50.47;;;25.55;;
43744;SDS011;29359;53.048;8.732;2023-02-23T02:51:28;47.85;;;26.00;;
43744;SDS011;29359;53.048;8.732;2023-02-23T02:53:50;54.75;;;26.58;;
43744;SDS011;29359;53.048;8.732;2023-02-23T02:56:06;50.80;;;26.48;;
43744;SDS011;29359;53.048;8.732;2023-02-23T02:58:10;58.63;;;27.00;;
43744;SDS011;29359;53.048;8.732;2023-02-23T03:00:15;51.33;;;25.52;;
43744;SDS011;29359;53.048;8.732;2023-02-23T03:02:38;50.58;;;27.05;;
43744;SDS011;29359;53.048;8.732;2023-02-23T03:04:59;59.40;;;27.85;;
43744;SDS011;29359;53.048;8.732;2023-02-23T03:07:22;50.97;;;26.10;;
43744;SDS011;29359;53.048;8.732;2023-02-23T03:10:13;51.50;;;25.85;;
43744;SDS011;29359;53.048;8.732;2023-02-23T03:20:26;59.78;;;26.90;;
43744;SDS011;29359;53.048;8.732;2023-02-23T03:25:31;56.30;;;25.63;;
43744;SDS011;29359;53.048;8.732;2023-02-23T03:30:26;53.72;;;26.25;;
43744;SDS011;29359;53.048;8.732;2023-02-23T03:36:07;49.55;;;25.60;;
43744;SDS011;29359;53.048;8.732;2023-02-23T03:38:53;51.83;;;26.70;;
43744;SDS011;29359;53.048;8.732;2023-02-23T03:41:29;53.10;;;25.42;;
43744;SDS011;29359;53.048;8.732;2023-02-23T03:43:54;53.50;;;25.85;;
43744;SDS011;29359;53.048;8.732;2023-02-23T03:46:18;50.17;;;25.38;;
43744;SDS011;29359;53.048;8.732;2023-02-23T03:48:42;49.58;;;24.85;;
43744;SDS011;29359;53.048;8.732;2023-02-23T03:51:05;53.47;;;26.30;;
43744;SDS011;29359;53.048;8.732;2023-02-23T03:53:30;49.50;;;26.00;;
43744;SDS011;29359;53.048;8.732;2023-02-23T03:55:54;50.90;;;25.50;;
43744;SDS011;29359;53.048;8.732;2023-02-23T03:58:18;59.45;;;26.45;;
43744;SDS011;29359;53.048;8.732;2023-02-23T04:00:48;48.88;;;26.02;;
43744;SDS011;29359;53.048;8.732;2023-02-23T04:03:11;54.40;;;24.98;;
43744;SDS011;29359;53.048;8.732;2023-02-23T04:05:37;54.53;;;25.77;;
43744;SDS011;29359;53.048;8.732;2023-02-23T04:08:00;52.05;;;25.55;;
43744;SDS011;29359;53.048;8.732;2023-02-23T04:10:24;54.05;;;25.85;;
43744;SDS011;29359;53.048;8.732;2023-02-23T04:15:25;55.03;;;26.17;;
43744;SDS011;29359;53.048;8.732;2023-02-23T04:17:30;49.70;;;25.95;;
43744;SDS011;29359;53.048;8.732;2023-02-23T04:19:31;53.05;;;26.75;;
43744;SDS011;29359;53.048;8.732;2023-02-23T04:21:33;52.63;;;25.98;;
43744;SDS011;29359;53.048;8.732;2023-02-23T04:23:35;54.17;;;27.33;;
43744;SDS011;29359;53.048;8.732;2023-02-23T04:25:41;52.38;;;25.45;;
43744;SDS011;29359;53.048;8.732;2023-02-23T04:27:43;54.05;;;26.75;;
43744;SDS011;29359;53.048;8.732;2023-02-23T04:29:45;50.72;;;25.45;;
43744;SDS011;29359;53.048;8.732;2023-02-23T04:31:46;50.67;;;26.33;;
43744;SDS011;29359;53.048;8.732;2023-02-23T04:33:49;55.42;;;27.42;;
43744;SDS011;29359;53.048;8.732;2023-02-23T04:35:51;51.05;;;26.17;;
43744;SDS011;29359;53.048;8.732;2023-02-23T04:37:54;54.53;;;26.30;;
43744;SDS011;29359;53.048;8.732;2023-02-23T04:39:55;56.90;;;27.30;;
43744;SDS011;29359;53.048;8.732;2023-02-23T04:41:57;55.65;;;25.70;;
43744;SDS011;29359;53.048;8.732;2023-02-23T04:43:58;55.60;;;27.10;;
43744;SDS011;29359;53.048;8.732;2023-02-23T04:46:00;54.58;;;25.65;;
43744;SDS011;29359;53.048;8.732;2023-02-23T04:48:02;52.35;;;25.00;;
43744;SDS011;29359;53.048;8.732;2023-02-23T04:50:03;56.22;;;27.48;;
43744;SDS011;29359;53.048;8.732;2023-02-23T04:52:05;63.95;;;28.63;;
43744;SDS011;29359;53.048;8.732;2023-02-23T04:54:07;56.63;;;27.90;;
43744;SDS011;29359;53.048;8.732;2023-02-23T04:56:09;51.45;;;26.38;;
43744;SDS011;29359;53.048;8.732;2023-02-23T04:58:11;52.28;;;26.02;;
43744;SDS011;29359;53.048;8.732;2023-02-23T05:00:16;58.22;;;28.08;;
43744;SDS011;29359;53.048;8.732;2023-02-23T05:02:18;58.08;;;28.52;;
43744;SDS011;29359;53.048;8.732;2023-02-23T05:04:19;56.95;;;27.00;;
43744;SDS011;29359;53.048;8.732;2023-02-23T05:06:21;62.20;;;28.42;;
43744;SDS011;29359;53.048;8.732;2023-02-23T05:08:22;60.05;;;29.20;;
43744;SDS011;29359;53.048;8.732;2023-02-23T05:10:24;57.97;;;27.63;;
43744;SDS011;29359;53.048;8.732;2023-02-23T05:12:25;57.17;;;27.25;;
43744;SDS011;29359;53.048;8.732;2023-02-23T05:14:27;55.85;;;27.33;;
43744;SDS011;29359;53.048;8.732;2023-02-23T05:16:28;58.15;;;27.88;;
43744;SDS011;29359;53.048;8.732;2023-02-23T05:18:30;56.92;;;27.00;;
43744;SDS011;29359;53.048;8.732;2023-02-23T05:20:31;59.90;;;27.02;;
43744;SDS011;29359;53.048;8.732;2023-02-23T05:22:33;56.63;;;27.85;;
43744;SDS011;29359;53.048;8.732;2023-02-23T05:24:34;58.10;;;28.92;;
43744;SDS011;29359;53.048;8.732;2023-02-23T05:26:36;55.88;;;27.42;;
43744;SDS011;29359;53.048;8.732;2023-02-23T05:28:38;50.13;;;27.38;;
43744;SDS011;29359;53.048;8.732;2023-02-23T05:30:41;55.38;;;27.20;;
43744;SDS011;29359;53.048;8.732;2023-02-23T05:32:43;53.05;;;26.50;;
43744;SDS011;29359;53.048;8.732;2023-02-23T05:34:44;61.28;;;28.73;;
43744;SDS011;29359;53.048;8.732;2023-02-23T05:36:46;61.85;;;28.13;;
43744;SDS011;29359;53.048;8.732;2023-02-23T05:38:47;69.28;;;29.15;;
43744;SDS011;29359;53.048;8.732;2023-02-23T05:40:49;60.80;;;29.30;;
43744;SDS011;29359;53.048;8.732;2023-02-23T05:42:51;62.67;;;28.90;;
43744;SDS011;29359;53.048;8.732;2023-02-23T05:44:52;58.25;;;27.88;;
43744;SDS011;29359;53.048;8.732;2023-02-23T05:46:53;68.80;;;29.70;;
43744;SDS011;29359;53.048;8.732;2023-02-23T05:48:56;62.05;;;29.25;;
43744;SDS011;29359;53.048;8.732;2023-02-23T05:51:07;64.30;;;29.05;;
43744;SDS011;29359;53.048;8.732;2023-02-23T05:53:11;57.83;;;28.50;;
43744;SDS011;29359;53.048;8.732;2023-02-23T05:55:13;57.33;;;28.23;;
43744;SDS011;29359;53.048;8.732;2023-02-23T05:57:15;64.32;;;29.40;;
43744;SDS011;29359;53.048;8.732;2023-02-23T05:59:16;60.22;;;29.27;;
43744;SDS011;29359;53.048;8.732;2023-02-23T06:01:18;62.05;;;29.30;;
43744;SDS011;29359;53.048;8.732;2023-02-23T06:03:20;62.35;;;29.08;;
43744;SDS011;29359;53.048;8.732;2023-02-23T06:05:22;65.72;;;30.23;;
43744;SDS011;29359;53.048;8.732;2023-02-23T06:07:25;63.42;;;28.58;;
43744;SDS011;29359;53.048;8.732;2023-02-23T06:09:26;60.60;;;29.27;;
43744;SDS011;29359;53.048;8.732;2023-02-23T06:11:28;64.38;;;30.42;;
43744;SDS011;29359;53.048;8.732;2023-02-23T06:13:30;60.30;;;29.38;;
43744;SDS011;29359;53.048;8.732;2023-02-23T06:15:32;61.33;;;28.27;;
43744;SDS011;29359;53.048;8.732;2023-02-23T06:17:34;55.00;;;27.90;;
43744;SDS011;29359;53.048;8.732;2023-02-23T06:19:36;57.90;;;28.52;;
43744;SDS011;29359;53.048;8.732;2023-02-23T06:21:37;68.43;;;30.10;;
43744;SDS011;29359;53.048;8.732;2023-02-23T06:23:39;56.08;;;27.20;;
43744;SDS011;29359;53.048;8.732;2023-02-23T06:25:41;58.78;;;27.63;;
43744;SDS011;29359;53.048;8.732;2023-02-23T06:27:43;64.38;;;28.48;;
43744;SDS011;29359;53.048;8.732;2023-02-23T06:29:45;62.38;;;29.27;;
43744;SDS011;29359;53.048;8.732;2023-02-23T06:31:47;58.97;;;27.95;;
43744;SDS011;29359;53.048;8.732;2023-02-23T06:33:48;63.03;;;29.20;;
43744;SDS011;29359;53.048;8.732;2023-02-23T06:35:51;63.72;;;29.50;;
43744;SDS011;29359;53.048;8.732;2023-02-23T06:37:53;70.18;;;29.92;;
43744;SDS011;29359;53.048;8.732;2023-02-23T06:39:54;62.35;;;28.88;;
43744;SDS011;29359;53.048;8.732;2023-02-23T06:41:55;74.53;;;29.88;;
43744;SDS011;29359;53.048;8.732;2023-02-23T06:43:57;63.70;;;29.52;;
43744;SDS011;29359;53.048;8.732;2023-02-23T06:45:58;68.90;;;29.00;;
43744;SDS011;29359;53.048;8.732;2023-02-23T06:48:00;64.93;;;30.65;;
43744;SDS011;29359;53.048;8.732;2023-02-23T06:50:01;68.15;;;30.02;;
43744;SDS011;29359;53.048;8.732;2023-02-23T06:52:04;73.32;;;31.40;;
43744;SDS011;29359;53.048;8.732;2023-02-23T06:54:05;73.57;;;31.45;;
43744;SDS011;29359;53.048;8.732;2023-02-23T06:56:07;69.40;;;30.73;;
43744;SDS011;29359;53.048;8.732;2023-02-23T06:58:08;73.70;;;31.52;;
43744;SDS011;29359;53.048;8.732;2023-02-23T07:00:10;70.93;;;31.15;;
43744;SDS011;29359;53.048;8.732;2023-02-23T07:02:15;77.65;;;31.52;;
43744;SDS011;29359;53.048;8.732;2023-02-23T07:04:17;78.03;;;31.33;;
43744;SDS011;29359;53.048;8.732;2023-02-23T07:06:18;76.32;;;31.58;;
43744;SDS011;29359;53.048;8.732;2023-02-23T07:08:20;77.28;;;32.42;;
43744;SDS011;29359;53.048;8.732;2023-02-23T07:10:21;72.32;;;31.77;;
43744;SDS011;29359;53.048;8.732;2023-02-23T07:12:23;77.25;;;33.28;;
43744;SDS011;29359;53.048;8.732;2023-02-23T07:14:24;73.07;;;32.65;;
43744;SDS011;29359;53.048;8.732;2023-02-23T07:16:28;77.13;;;33.95;;
43744;SDS011;29359;53.048;8.732;2023-02-23T07:18:29;82.47;;;33.47;;
43744;SDS011;29359;53.048;8.732;2023-02-23T07:20:31;76.10;;;32.05;;
43744;SDS011;29359;53.048;8.732;2023-02-23T07:22:33;81.35;;;33.53;;
43744;SDS011;29359;53.048;8.732;2023-02-23T07:24:35;79.00;;;33.08;;
43744;SDS011;29359;53.048;8.732;2023-02-23T07:26:38;79.13;;;33.58;;
43744;SDS011;29359;53.048;8.732;2023-02-23T07:28:43;88.80;;;35.33;;
43744;SDS011;29359;53.048;8.732;2023-02-23T07:30:45;81.35;;;32.30;;
43744;SDS011;29359;53.048;8.732;2023-02-23T07:32:47;88.38;;;33.67;;
43744;SDS011;29359;53.048;8.732;2023-02-23T07:34:48;78.93;;;33.83;;
43744;SDS011;29359;53.048;8.732;2023-02-23T07:36:51;88.60;;;34.70;;
43744;SDS011;29359;53.048;8.732;2023-02-23T07:38:53;91.18;;;34.08;;
43744;SDS011;29359;53.048;8.732;2023-02-23T07:40:55;97.57;;;36.63;;
43744;SDS011;29359;53.048;8.732;2023-02-23T07:42:56;98.70;;;35.92;;
43744;SDS011;29359;53.048;8.732;2023-02-23T07:44:58;94.80;;;35.70;;
43744;SDS011;29359;53.048;8.732;2023-02-23T07:47:00;90.88;;;35.10;;
43744;SDS011;29359;53.048;8.732;2023-02-23T07:49:02;89.82;;;35.05;;
43744;SDS011;29359;53.048;8.732;2023-02-23T07:51:07;89.75;;;34.50;;
43744;SDS011;29359;53.048;8.732;2023-02-23T07:53:10;95.18;;;36.28;;
43744;SDS011;29359;53.048;8.732;2023-02-23T07:55:12;102.32;;;35.65;;
43744;SDS011;29359;53.048;8.732;2023-02-23T07:57:13;98.10;;;35.38;;
43744;SDS011;29359;53.048;8.732;2023-02-23T07:59:15;100.57;;;35.35;;
43744;SDS011;29359;53.048;8.732;2023-02-23T08:01:17;100.22;;;35.45;;
43744;SDS011;29359;53.048;8.732;2023-02-23T08:03:19;95.65;;;37.55;;
43744;SDS011;29359;53.048;8.732;2023-02-23T08:05:21;100.05;;;36.35;;
43744;SDS011;29359;53.048;8.732;2023-02-23T08:07:24;90.25;;;35.65;;
43744;SDS011;29359;53.048;8.732;2023-02-23T08:09:26;109.70;;;38.60;;
43744;SDS011;29359;53.048;8.732;2023-02-23T08:11:27;113.03;;;39.53;;
43744;SDS011;29359;53.048;8.732;2023-02-23T08:13:30;112.35;;;40.60;;
43744;SDS011;29359;53.048;8.732;2023-02-23T08:15:32;122.82;;;40.58;;
43744;SDS011;29359;53.048;8.732;2023-02-23T08:17:34;128.15;;;40.80;;
43744;SDS011;29359;53.048;8.732;2023-02-23T08:19:36;140.05;;;43.53;;
43744;SDS011;29359;53.048;8.732;2023-02-23T08:21:38;138.63;;;42.20;;
43744;SDS011;29359;53.048;8.732;2023-02-23T08:23:40;138.82;;;42.35;;
43744;SDS011;29359;53.048;8.732;2023-02-23T08:25:41;146.65;;;43.90;;
43744;SDS011;29359;53.048;8.732;2023-02-23T08:27:42;146.48;;;45.17;;
43744;SDS011;29359;53.048;8.732;2023-02-23T08:29:44;143.30;;;43.60;;
43744;SDS011;29359;53.048;8.732;2023-02-23T08:31:46;141.25;;;43.50;;
43744;SDS011;29359;53.048;8.732;2023-02-23T08:33:47;148.88;;;44.00;;
43744;SDS011;29359;53.048;8.732;2023-02-23T08:35:49;145.98;;;43.38;;
43744;SDS011;29359;53.048;8.732;2023-02-23T08:37:53;149.32;;;43.58;;
43744;SDS011;29359;53.048;8.732;2023-02-23T08:39:57;146.63;;;43.75;;
43744;SDS011;29359;53.048;8.732;2023-02-23T08:42:01;149.05;;;44.85;;
43744;SDS011;29359;53.048;8.732;2023-02-23T08:44:03;148.45;;;44.60;;
43744;SDS011;29359;53.048;8.732;2023-02-23T08:46:05;148.25;;;43.08;;
43744;SDS011;29359;53.048;8.732;2023-02-23T08:48:07;144.55;;;44.42;;
43744;SDS011;29359;53.048;8.732;2023-02-23T08:50:09;142.82;;;43.60;;
43744;SDS011;29359;53.048;8.732;2023-02-23T08:52:11;136.57;;;40.47;;
43744;SDS011;29359;53.048;8.732;2023-02-23T08:54:13;140.57;;;42.70;;
43744;SDS011;29359;53.048;8.732;2023-02-23T08:56:16;140.82;;;42.35;;
43744;SDS011;29359;53.048;8.732;2023-02-23T08:58:17;128.43;;;41.90;;
43744;SDS011;29359;53.048;8.732;2023-02-23T09:00:19;134.05;;;42.13;;
43744;SDS011;29359;53.048;8.732;2023-02-23T09:02:21;127.65;;;42.15;;
43744;SDS011;29359;53.048;8.732;2023-02-23T09:04:23;130.98;;;41.47;;
43744;SDS011;29359;53.048;8.732;2023-02-23T09:06:26;129.82;;;40.92;;
43744;SDS011;29359;53.048;8.732;2023-02-23T09:08:27;128.57;;;40.55;;
43744;SDS011;29359;53.048;8.732;2023-02-23T09:10:29;125.10;;;39.92;;
43744;SDS011;29359;53.048;8.732;2023-02-23T09:12:32;125.20;;;40.38;;
43744;SDS011;29359;53.048;8.732;2023-02-23T09:14:33;115.45;;;38.38;;
43744;SDS011;29359;53.048;8.732;2023-02-23T09:16:36;115.25;;;38.97;;
43744;SDS011;29359;53.048;8.732;2023-02-23T09:18:37;108.50;;;38.45;;
43744;SDS011;29359;53.048;8.732;2023-02-23T09:20:40;114.63;;;38.90;;
43744;SDS011;29359;53.048;8.732;2023-02-23T09:22:43;116.78;;;38.47;;
43744;SDS011;29359;53.048;8.732;2023-02-23T09:24:48;100.45;;;37.45;;
43744;SDS011;29359;53.048;8.732;2023-02-23T09:26:50;102.45;;;35.17;;
43744;SDS011;29359;53.048;8.732;2023-02-23T09:28:54;104.80;;;36.20;;
43744;SDS011;29359;53.048;8.732;2023-02-23T09:30:56;107.55;;;37.08;;
43744;SDS011;29359;53.048;8.732;2023-02-23T09:32:57;108.35;;;37.33;;
43744;SDS011;29359;53.048;8.732;2023-02-23T09:34:59;102.88;;;34.78;;
43744;SDS011;29359;53.048;8.732;2023-02-23T09:37:01;94.43;;;32.78;;
43744;SDS011;29359;53.048;8.732;2023-02-23T09:39:03;100.43;;;33.83;;
43744;SDS011;29359;53.048;8.732;2023-02-23T09:41:07;96.88;;;32.88;;
43744;SDS011;29359;53.048;8.732;2023-02-23T09:43:35;96.53;;;34.53;;
43744;SDS011;29359;53.048;8.732;2023-02-23T09:46:22;99.78;;;35.03;;
43744;SDS011;29359;53.048;8.732;2023-02-23T09:48:15;100.22;;;32.63;;
43744;SDS011;29359;53.048;8.732;2023-02-23T09:50:20;98.97;;;34.20;;
43744;SDS011;29359;53.048;8.732;2023-02-23T09:52:26;97.15;;;31.77;;
43744;SDS011;29359;53.048;8.732;2023-02-23T09:54:39;96.50;;;33.25;;
43744;SDS011;29359;53.048;8.732;2023-02-23T09:56:42;99.80;;;33.60;;
43744;SDS011;29359;53.048;8.732;2023-02-23T09:58:47;93.80;;;33.17;;
43744;SDS011;29359;53.048;8.732;2023-02-23T10:00:54;91.30;;;33.63;;
43744;SDS011;29359;53.048;8.732;2023-02-23T10:03:45;106.85;;;35.78;;
43744;SDS011;29359;53.048;8.732;2023-02-23T10:05:31;93.05;;;33.45;;
43744;SDS011;29359;53.048;8.732;2023-02-23T10:09:58;98.22;;;35.55;;
43744;SDS011;29359;53.048;8.732;2023-02-23T10:12:29;92.78;;;33.15;;
43744;SDS011;29359;53.048;8.732;2023-02-23T10:15:06;90.90;;;32.88;;
43744;SDS011;29359;53.048;8.732;2023-02-23T10:19:51;90.72;;;32.67;;
43744;SDS011;29359;53.048;8.732;2023-02-23T10:22:02;86.20;;;32.70;;
43744;SDS011;29359;53.048;8.732;2023-02-23T10:24:28;89.45;;;32.53;;
43744;SDS011;29359;53.048;8.732;2023-02-23T10:28:58;82.07;;;31.95;;
43744;SDS011;29359;53.048;8.732;2023-02-23T10:31:00;80.95;;;29.55;;
43744;SDS011;29359;53.048;8.732;2023-02-23T10:35:38;82.20;;;29.38;;
43744;SDS011;29359;53.048;8.732;2023-02-23T10:37:40;69.80;;;28.40;;
43744;SDS011;29359;53.048;8.732;2023-02-23T10:39:41;74.97;;;29.30;;
43744;SDS011;29359;53.048;8.732;2023-02-23T10:41:43;72.30;;;28.55;;
43744;SDS011;29359;53.048;8.732;2023-02-23T10:43:45;71.25;;;27.17;;
43744;SDS011;29359;53.048;8.732;2023-02-23T10:45:49;72.47;;;27.25;;
43744;SDS011;29359;53.048;8.732;2023-02-23T10:47:54;72.90;;;27.65;;
43744;SDS011;29359;53.048;8.732;2023-02-23T10:49:59;67.82;;;28.10;;
43744;SDS011;29359;53.048;8.732;2023-02-23T10:52:01;71.35;;;27.80;;
43744;SDS011;29359;53.048;8.732;2023-02-23T10:56:44;76.50;;;27.25;;
43744;SDS011;29359;53.048;8.732;2023-02-23T11:00:59;65.10;;;26.52;;
43744;SDS011;29359;53.048;8.732;2023-02-23T11:03:02;64.80;;;26.35;;
43744;SDS011;29359;53.048;8.732;2023-02-23T11:05:30;58.90;;;25.08;;
43744;SDS011;29359;53.048;8.732;2023-02-23T11:07:32;76.00;;;26.95;;
43744;SDS011;29359;53.048;8.732;2023-02-23T11:09:34;67.38;;;25.27;;
43744;SDS011;29359;53.048;8.732;2023-02-23T11:11:58;64.10;;;27.08;;
43744;SDS011;29359;53.048;8.732;2023-02-23T11:13:59;65.53;;;26.58;;
43744;SDS011;29359;53.048;8.732;2023-02-23T11:16:20;67.95;;;26.65;;
43744;SDS011;29359;53.048;8.732;2023-02-23T11:18:29;66.78;;;26.50;;
43744;SDS011;29359;53.048;8.732;2023-02-23T11:20:34;74.47;;;26.55;;
43744;SDS011;29359;53.048;8.732;2023-02-23T11:22:40;68.80;;;26.52;;
43744;SDS011;29359;53.048;8.732;2023-02-23T11:24:42;70.03;;;26.52;;
43744;SDS011;29359;53.048;8.732;2023-02-23T11:26:44;76.75;;;26.65;;
43744;SDS011;29359;53.048;8.732;2023-02-23T11:28:49;77.47;;;25.27;;
43744;SDS011;29359;53.048;8.732;2023-02-23T11:30:53;75.38;;;26.98;;
43744;SDS011;29359;53.048;8.732;2023-02-23T11:32:57;81.28;;;27.67;;
43744;SDS011;29359;53.048;8.732;2023-02-23T11:39:20;93.20;;;29.50;;
43744;SDS011;29359;53.048;8.732;2023-02-23T11:41:23;88.38;;;31.88;;
43744;SDS011;29359;53.048;8.732;2023-02-23T11:43:25;85.93;;;29.17;;
43744;SDS011;29359;53.048;8.732;2023-02-23T11:45:27;99.72;;;30.50;;
43744;SDS011;29359;53.048;8.732;2023-02-23T11:47:37;84.40;;;28.80;;
43744;SDS011;29359;53.048;8.732;2023-02-23T11:49:40;89.40;;;29.63;;
43744;SDS011;29359;53.048;8.732;2023-02-23T11:51:47;89.97;;;28.85;;
43744;SDS011;29359;53.048;8.732;2023-02-23T11:53:50;89.35;;;28.80;;
43744;SDS011;29359;53.048;8.732;2023-02-23T11:55:52;93.05;;;30.60;;
43744;SDS011;29359;53.048;8.732;2023-02-23T11:58:09;87.30;;;29.77;;
43744;SDS011;29359;53.048;8.732;2023-02-23T12:00:27;92.00;;;28.00;;
43744;SDS011;29359;53.048;8.732;2023-02-23T12:02:29;91.10;;;29.25;;
43744;SDS011;29359;53.048;8.732;2023-02-23T12:04:34;95.15;;;29.95;;
43744;SDS011;29359;53.048;8.732;2023-02-23T12:06:38;90.20;;;27.38;;
43744;SDS011;29359;53.048;8.732;2023-02-23T12:08:45;89.85;;;30.23;;
43744;SDS011;29359;53.048;8.732;2023-02-23T12:10:53;86.18;;;28.80;;
43744;SDS011;29359;53.048;8.732;2023-02-23T12:15:05;89.40;;;29.77;;
43744;SDS011;29359;53.048;8.732;2023-02-23T12:19:48;103.05;;;30.85;;
43744;SDS011;29359;53.048;8.732;2023-02-23T12:21:57;105.63;;;32.47;;
43744;SDS011;29359;53.048;8.732;2023-02-23T12:26:17;96.95;;;31.52;;
43744;SDS011;29359;53.048;8.732;2023-02-23T12:28:42;107.93;;;33.10;;
43744;SDS011;29359;53.048;8.732;2023-02-23T12:30:52;110.53;;;34.28;;
43744;SDS011;29359;53.048;8.732;2023-02-23T12:35:24;113.38;;;35.03;;
43744;SDS011;29359;53.048;8.732;2023-02-23T12:37:38;123.25;;;36.13;;
43744;SDS011;29359;53.048;8.732;2023-02-23T12:39:46;120.32;;;37.25;;
43744;SDS011;29359;53.048;8.732;2023-02-23T12:41:54;116.78;;;36.30;;
43744;SDS011;29359;53.048;8.732;2023-02-23T12:46:34;122.82;;;35.67;;
43744;SDS011;29359;53.048;8.732;2023-02-23T12:50:50;116.70;;;37.20;;
43744;SDS011;29359;53.048;8.732;2023-02-23T12:52:55;128.57;;;39.03;;
43744;SDS011;29359;53.048;8.732;2023-02-23T12:55:01;130.93;;;40.92;;
43744;SDS011;29359;53.048;8.732;2023-02-23T13:01:32;129.63;;;38.40;;
43744;SDS011;29359;53.048;8.732;2023-02-23T13:08:55;104.30;;;32.45;;
43744;SDS011;29359;53.048;8.732;2023-02-23T13:15:58;88.38;;;29.67;;
43744;SDS011;29359;53.048;8.732;2023-02-23T13:18:26;91.93;;;29.27;;
43744;SDS011;29359;53.048;8.732;2023-02-23T13:22:58;94.03;;;29.38;;
43744;SDS011;29359;53.048;8.732;2023-02-23T13:25:09;89.55;;;30.70;;
43744;SDS011;29359;53.048;8.732;2023-02-23T13:27:25;87.15;;;29.48;;
43744;SDS011;29359;53.048;8.732;2023-02-23T13:30:07;89.22;;;29.00;;
43744;SDS011;29359;53.048;8.732;2023-02-23T13:32:03;88.32;;;30.60;;
43744;SDS011;29359;53.048;8.732;2023-02-23T13:34:09;94.22;;;29.67;;
43744;SDS011;29359;53.048;8.732;2023-02-23T13:36:16;83.90;;;29.27;;
43744;SDS011;29359;53.048;8.732;2023-02-23T13:38:45;86.85;;;28.52;;
43744;SDS011;29359;53.048;8.732;2023-02-23T13:41:08;86.13;;;29.52;;
43744;SDS011;29359;53.048;8.732;2023-02-23T13:43:31;86.53;;;29.73;;
43744;SDS011;29359;53.048;8.732;2023-02-23T13:48:03;98.15;;;29.63;;
43744;SDS011;29359;53.048;8.732;2023-02-23T13:52:52;82.00;;;27.85;;